Time;durP1;ratioP1;P1;durP2;ratioP2;P2;SDS_P1;SDS_P2;PMS_P1;PMS_P2;Temp;Humidity;BMP_temperature;BMP_pressure;BME280_temperature;BME280_humidity;BME280_pressure;Samples;Min_cycle;Max_cycle;Signal;HPM_P1;HPM_P2
2021/11/08 00:00:30;;;;;;;10.27;3.50;;;8.10;82.00;;;;;;4869770;29;21102;-41
2021/11/08 00:02:59;;;;;;;13.67;5.00;;;8.00;82.20;;;;;;4877302;29;20860;-41
2021/11/08 00:05:26;;;;;;;8.33;3.27;;;8.00;82.30;;;;;;4872608;29;20479;-41
2021/11/08 00:08:01;;;;;;;11.67;3.90;;;8.10;82.00;;;;;;4872066;29;20569;-41
2021/11/08 00:10:31;;;;;;;10.70;3.60;;;8.10;82.10;;;;;;4851274;29;21079;-41
2021/11/08 00:13:00;;;;;;;18.73;4.60;;;8.10;82.10;;;;;;4871473;29;20474;-41
2021/11/08 00:15:36;;;;;;;9.07;3.23;;;8.00;82.40;;;;;;4873576;29;20973;-41
2021/11/08 00:18:23;;;;;;;6.20;3.03;;;8.00;82.60;;;;;;4869467;29;20476;-41
2021/11/08 00:20:51;;;;;;;9.00;3.00;;;8.00;82.60;;;;;;4882391;29;20457;-41
2021/11/08 00:23:19;;;;;;;12.80;3.87;;;8.00;82.70;;;;;;4886947;29;20481;-41
2021/11/08 00:25:46;;;;;;;6.13;3.43;;;8.00;82.60;;;;;;4872417;29;21900;-41
2021/11/08 00:28:16;;;;;;;9.50;3.60;;;8.00;82.80;;;;;;4866204;29;21916;-41
2021/11/08 00:30:44;;;;;;;10.83;3.87;;;8.00;83.00;;;;;;4871961;29;20469;-40
2021/11/08 00:33:15;;;;;;;11.03;3.90;;;8.00;83.00;;;;;;4855462;29;20466;-41
2021/11/08 00:35:47;;;;;;;8.27;3.13;;;8.00;82.90;;;;;;4874256;29;20473;-41
2021/11/08 00:38:14;;;;;;;9.90;3.97;;;8.00;83.00;;;;;;4867953;29;20474;-41
2021/11/08 00:40:42;;;;;;;12.97;3.80;;;8.00;83.10;;;;;;4869037;29;20478;-41
2021/11/08 00:43:10;;;;;;;9.10;3.57;;;8.00;83.00;;;;;;4874861;29;20497;-40
2021/11/08 00:45:38;;;;;;;12.43;3.30;;;8.00;82.90;;;;;;4871044;29;20465;-40
2021/11/08 00:48:05;;;;;;;11.53;3.50;;;8.00;82.80;;;;;;4853267;29;20467;-40
2021/11/08 00:50:33;;;;;;;7.30;2.87;;;8.00;82.90;;;;;;4869556;29;20997;-41
2021/11/08 00:53:01;;;;;;;10.80;4.50;;;8.00;83.00;;;;;;4869557;29;20476;-41
2021/11/08 00:55:30;;;;;;;7.23;3.37;;;8.00;83.20;;;;;;4870975;29;20502;-41
2021/11/08 00:57:58;;;;;;;9.23;3.60;;;8.00;83.30;;;;;;4869627;29;20511;-40
2021/11/08 01:00:29;;;;;;;12.70;3.90;;;8.00;83.30;;;;;;4868195;29;20469;-40
2021/11/08 01:02:57;;;;;;;6.37;5.00;;;8.00;83.20;;;;;;4868611;29;20493;-40
2021/11/08 01:05:24;;;;;;;7.03;2.83;;;8.00;83.00;;;;;;4853678;29;21723;-40
2021/11/08 01:07:51;;;;;;;9.47;3.90;;;8.00;83.00;;;;;;4871548;29;20474;-40
2021/11/08 01:10:19;;;;;;;5.70;2.90;;;8.00;82.90;;;;;;4871719;29;21180;-41
2021/11/08 01:12:47;;;;;;;6.20;3.73;;;8.10;82.70;;;;;;4872196;29;22627;-41
2021/11/08 01:15:16;;;;;;;5.90;2.90;;;8.10;82.70;;;;;;4853007;29;21088;-41
2021/11/08 01:17:43;;;;;;;8.10;4.30;;;8.00;82.80;;;;;;4869986;29;20474;-41
2021/11/08 01:20:10;;;;;;;11.60;4.20;;;8.00;82.80;;;;;;4869131;29;20866;-41
2021/11/08 01:22:41;;;;;;;16.43;3.27;;;8.00;82.60;;;;;;4868305;29;20495;-41
2021/11/08 01:25:09;;;;;;;9.40;3.50;;;8.00;82.60;;;;;;4852568;29;20592;-40
2021/11/08 01:27:49;;;;;;;22.43;4.33;;;7.90;82.90;;;;;;4871311;29;20462;-40
2021/11/08 01:30:19;;;;;;;10.97;3.53;;;7.90;82.90;;;;;;4852496;29;20492;-40
2021/11/08 01:33:02;;;;;;;5.80;4.03;;;7.90;83.00;;;;;;4866543;29;20994;-40
2021/11/08 01:35:37;;;;;;;3.53;2.40;;;7.90;83.10;;;;;;4871491;29;20462;-41
2021/11/08 01:38:09;;;;;;;8.53;3.67;;;7.90;82.90;;;;;;4846420;29;20470;-41
2021/11/08 01:40:38;;;;;;;9.70;3.30;;;7.80;83.10;;;;;;4870802;29;20513;-41
2021/11/08 01:43:07;;;;;;;12.10;4.33;;;7.80;83.10;;;;;;4869261;29;21040;-40
2021/11/08 01:45:34;;;;;;;9.23;3.23;;;7.80;83.10;;;;;;4867614;29;20477;-40
2021/11/08 01:48:01;;;;;;;6.10;2.90;;;7.80;83.10;;;;;;4869540;29;20524;-41
2021/11/08 01:50:28;;;;;;;7.37;3.33;;;7.70;83.20;;;;;;4866990;29;20904;-40
2021/11/08 01:52:56;;;;;;;7.93;3.00;;;7.70;83.20;;;;;;4872908;29;20465;-41
2021/11/08 01:55:24;;;;;;;9.57;3.40;;;7.70;83.30;;;;;;4839387;29;21001;-41
2021/11/08 01:57:51;;;;;;;7.63;3.20;;;7.60;83.30;;;;;;4864810;29;20469;-41
2021/11/08 02:00:21;;;;;;;6.37;3.60;;;7.60;83.40;;;;;;4849865;29;20935;-41
2021/11/08 02:02:48;;;;;;;6.63;3.60;;;7.60;83.40;;;;;;4868067;29;20457;-40
2021/11/08 02:05:15;;;;;;;16.00;3.73;;;7.60;83.40;;;;;;4869646;29;20500;-40
2021/11/08 02:07:42;;;;;;;16.50;4.23;;;7.60;83.30;;;;;;4874233;29;20482;-40
2021/11/08 02:10:11;;;;;;;12.07;4.53;;;7.60;83.10;;;;;;4867027;29;21044;-40
2021/11/08 02:12:39;;;;;;;4.67;3.40;;;7.50;83.10;;;;;;4852564;29;20511;-40
2021/11/08 02:15:10;;;;;;;8.93;3.90;;;7.50;83.10;;;;;;4864793;29;20480;-40
2021/11/08 02:17:37;;;;;;;10.73;3.83;;;7.50;82.90;;;;;;4856900;29;22152;-40
2021/11/08 02:20:13;;;;;;;7.73;3.40;;;7.50;83.00;;;;;;4851761;29;20477;-40
2021/11/08 02:22:42;;;;;;;5.93;3.30;;;7.50;82.90;;;;;;4866782;29;20480;-40
2021/11/08 02:25:10;;;;;;;9.63;3.40;;;7.50;82.90;;;;;;4869547;29;20919;-40
2021/11/08 02:27:39;;;;;;;10.43;3.63;;;7.50;83.00;;;;;;4866208;29;20845;-40
2021/11/08 02:30:07;;;;;;;9.37;3.83;;;7.40;82.90;;;;;;4854070;29;20465;-40
2021/11/08 02:32:34;;;;;;;10.73;3.67;;;7.40;82.90;;;;;;4858141;29;20484;-40
2021/11/08 02:35:02;;;;;;;13.40;3.77;;;7.40;83.10;;;;;;4856377;29;21002;-40
2021/11/08 02:37:29;;;;;;;17.87;3.90;;;7.40;83.40;;;;;;4844297;29;20834;-41
2021/11/08 02:39:56;;;;;;;10.70;4.10;;;7.30;83.40;;;;;;4872117;29;20462;-40
2021/11/08 02:42:23;;;;;;;8.73;3.87;;;7.40;83.50;;;;;;4869603;29;20540;-40
2021/11/08 02:44:50;;;;;;;13.13;4.33;;;7.40;83.60;;;;;;4867153;29;20524;-40
2021/11/08 02:47:17;;;;;;;6.60;3.60;;;7.30;83.80;;;;;;4836909;29;20512;-40
2021/11/08 02:49:46;;;;;;;6.73;3.53;;;7.30;84.10;;;;;;4872361;29;20843;-41
2021/11/08 02:52:17;;;;;;;8.30;3.57;;;7.20;84.20;;;;;;4867505;29;20577;-41
2021/11/08 02:54:47;;;;;;;5.63;3.40;;;7.20;84.30;;;;;;4866889;29;20474;-40
2021/11/08 02:57:15;;;;;;;9.60;4.53;;;7.20;84.40;;;;;;4863532;29;20894;-40
2021/11/08 02:59:42;;;;;;;9.67;4.50;;;7.20;84.40;;;;;;4887994;29;20473;-41
2021/11/08 03:02:09;;;;;;;7.17;4.00;;;7.20;84.40;;;;;;4856174;29;20473;-42
2021/11/08 03:04:41;;;;;;;10.03;4.10;;;7.20;84.50;;;;;;4871590;29;20994;-42
2021/11/08 03:07:10;;;;;;;5.37;4.10;;;7.20;84.50;;;;;;4868376;29;20473;-43
2021/11/08 03:09:56;;;;;;;7.87;3.40;;;7.30;84.40;;;;;;4849063;29;20473;-43
2021/11/08 03:12:27;;;;;;;16.40;4.10;;;7.30;84.20;;;;;;4857417;29;20623;-43
2021/11/08 03:15:08;;;;;;;8.17;3.60;;;7.30;84.30;;;;;;4867459;29;21021;-43
2021/11/08 03:17:41;;;;;;;8.30;3.37;;;7.30;84.20;;;;;;4870520;29;20474;-42
2021/11/08 03:20:12;;;;;;;8.00;3.23;;;7.20;84.20;;;;;;4851762;29;20466;-43
2021/11/08 03:22:46;;;;;;;9.17;4.20;;;7.20;84.30;;;;;;4851081;29;21796;-42
2021/11/08 03:25:25;;;;;;;11.50;4.23;;;7.20;84.40;;;;;;4863842;29;20501;-43
2021/11/08 03:27:53;;;;;;;5.47;3.87;;;7.20;84.10;;;;;;4869266;29;20521;-43
2021/11/08 03:30:25;;;;;;;7.73;3.30;;;7.10;84.00;;;;;;4871571;29;20513;-43
2021/11/08 03:32:56;;;;;;;8.23;3.80;;;7.10;84.10;;;;;;4876203;29;20985;-42
2021/11/08 03:35:25;;;;;;;13.53;3.97;;;7.00;84.20;;;;;;4885273;29;20469;-43
2021/11/08 03:37:53;;;;;;;11.30;4.30;;;7.00;84.30;;;;;;4890375;29;20525;-42
2021/11/08 03:40:24;;;;;;;7.70;3.57;;;6.90;84.30;;;;;;4887120;29;20886;-42
2021/11/08 03:42:54;;;;;;;7.67;3.67;;;6.90;84.30;;;;;;4887164;29;21394;-43
2021/11/08 03:45:25;;;;;;;14.73;3.50;;;6.90;84.40;;;;;;4892685;29;20489;-43
2021/11/08 03:47:54;;;;;;;6.40;3.70;;;6.90;84.40;;;;;;4899872;29;20466;-43
2021/11/08 03:50:22;;;;;;;7.83;4.20;;;6.80;84.50;;;;;;4900978;29;20525;-43
2021/11/08 03:52:49;;;;;;;11.23;4.23;;;6.90;84.60;;;;;;4897197;29;20480;-42
2021/11/08 03:55:18;;;;;;;11.37;3.70;;;6.90;84.70;;;;;;4899908;29;21074;-43
2021/11/08 03:57:46;;;;;;;9.50;3.90;;;6.90;84.80;;;;;;4883767;29;20537;-42
2021/11/08 04:00:16;;;;;;;9.20;4.23;;;6.90;85.00;;;;;;4899277;29;20470;-43
2021/11/08 04:02:43;;;;;;;14.67;4.47;;;6.80;85.00;;;;;;4894153;29;20552;-43
2021/11/08 04:05:12;;;;;;;7.57;4.10;;;6.90;85.20;;;;;;4900899;29;20493;-43
2021/11/08 04:07:39;;;;;;;12.50;4.00;;;6.80;85.30;;;;;;4899629;29;20473;-43
2021/11/08 04:10:09;;;;;;;5.00;3.47;;;6.90;85.30;;;;;;4896474;29;21036;-41
2021/11/08 04:12:37;;;;;;;6.40;4.13;;;6.90;85.30;;;;;;4867598;29;21290;-41
2021/11/08 04:15:08;;;;;;;6.77;3.67;;;6.80;85.30;;;;;;4869959;29;20553;-40
2021/11/08 04:17:41;;;;;;;5.10;3.40;;;6.80;85.40;;;;;;4886467;29;20453;-40
2021/11/08 04:20:08;;;;;;;6.27;3.97;;;6.80;85.40;;;;;;4885294;29;20469;-41
2021/11/08 04:22:36;;;;;;;8.70;4.03;;;6.80;85.40;;;;;;4886598;29;20473;-40
2021/11/08 04:25:05;;;;;;;12.47;4.53;;;6.80;85.30;;;;;;4868972;29;20497;-40
2021/11/08 04:27:36;;;;;;;10.33;4.07;;;6.80;85.30;;;;;;4886100;29;20881;-40
2021/11/08 04:30:06;;;;;;;11.63;4.90;;;6.80;85.30;;;;;;4868627;29;21138;-40
2021/11/08 04:32:46;;;;;;;12.00;4.33;;;6.80;85.30;;;;;;4886243;29;20524;-40
2021/11/08 04:35:18;;;;;;;9.77;4.40;;;6.80;85.30;;;;;;4887537;29;20473;-41
2021/11/08 04:40:41;;;;;;;11.30;4.10;;;6.80;85.20;;;;;;4886366;29;20461;-40
2021/11/08 04:43:26;;;;;;;9.80;4.10;;;6.80;85.10;;;;;;4887976;29;20916;-40
2021/11/08 04:49:08;;;;;;;9.93;3.63;;;6.80;85.30;;;;;;4887801;29;20835;-41
2021/11/08 04:54:28;;;;;;;9.57;3.90;;;6.70;85.40;;;;;;4887043;29;20984;-40
2021/11/08 05:30:14;;;;;;;8.00;4.50;;;6.90;86.50;;;;;;4875780;29;20465;-40
2021/11/08 05:32:44;;;;;;;9.97;4.30;;;6.90;86.60;;;;;;4886319;29;20977;-40
2021/11/08 05:35:13;;;;;;;10.33;4.93;;;6.90;86.50;;;;;;4882172;29;20480;-41
2021/11/08 05:37:43;;;;;;;10.17;4.60;;;7.00;86.60;;;;;;4869278;29;20971;-41
2021/11/08 05:40:15;;;;;;;7.53;4.57;;;7.00;86.70;;;;;;4882873;29;20858;-41
2021/11/08 05:42:42;;;;;;;10.90;4.70;;;7.00;86.70;;;;;;4881374;29;20940;-41
2021/11/08 05:45:14;;;;;;;10.40;4.77;;;7.10;86.60;;;;;;4884167;29;20481;-41
2021/11/08 05:47:41;;;;;;;11.43;5.90;;;7.10;86.60;;;;;;4884208;29;20466;-41
2021/11/08 05:50:10;;;;;;;12.97;5.00;;;7.10;86.70;;;;;;4869811;29;20468;-41
2021/11/08 05:52:38;;;;;;;13.20;5.93;;;7.10;86.60;;;;;;4884048;29;20475;-40
2021/11/08 05:55:08;;;;;;;14.20;5.50;;;7.10;86.60;;;;;;4880588;29;20481;-40
2021/11/08 05:57:45;;;;;;;11.63;5.53;;;7.10;86.50;;;;;;4883919;29;20464;-40
2021/11/08 06:01:04;;;;;;;10.83;4.63;;;7.10;86.50;;;;;;4885149;29;20473;-41
2021/11/08 06:50:08;;;;;;;10.03;6.10;;;7.30;86.30;;;;;;4883102;29;20470;-40
2021/11/08 06:52:37;;;;;;;22.90;5.90;;;7.30;86.30;;;;;;4868042;29;20466;-41
2021/11/08 06:55:06;;;;;;;12.07;5.87;;;7.30;86.40;;;;;;4866062;29;21017;-41
2021/11/08 06:57:45;;;;;;;15.40;5.33;;;7.30;86.50;;;;;;4861792;29;20485;-40
2021/11/08 07:00:13;;;;;;;9.87;5.80;;;7.30;86.10;;;;;;4863972;29;20475;-40
2021/11/08 07:02:40;;;;;;;10.20;6.13;;;7.40;86.10;;;;;;4882404;29;20480;-40
2021/11/08 07:05:07;;;;;;;13.93;6.27;;;7.40;86.00;;;;;;4877575;29;20501;-40
2021/11/08 07:07:34;;;;;;;8.70;4.90;;;7.40;86.00;;;;;;4862275;29;20474;-40
2021/11/08 07:10:02;;;;;;;12.20;6.83;;;7.40;86.00;;;;;;4876702;29;20565;-40
2021/11/08 07:12:29;;;;;;;15.63;5.20;;;7.40;86.10;;;;;;4866298;29;20854;-40
2021/11/08 07:14:55;;;;;;;8.27;4.40;;;7.40;86.20;;;;;;4881684;29;20977;-41
2021/11/08 07:17:23;;;;;;;12.67;5.30;;;7.40;86.20;;;;;;4879383;29;20469;-42
2021/11/08 07:19:49;;;;;;;11.43;4.37;;;7.50;85.80;;;;;;4865245;29;20489;-40
2021/11/08 07:22:16;;;;;;;10.67;4.90;;;7.50;85.80;;;;;;4879981;29;20470;-40
2021/11/08 07:24:43;;;;;;;10.10;5.63;;;7.50;85.80;;;;;;4863611;29;20498;-40
2021/11/08 07:27:10;;;;;;;8.40;5.50;;;7.50;85.80;;;;;;4874282;29;20466;-40
2021/11/08 07:29:37;;;;;;;8.80;4.27;;;7.50;85.80;;;;;;4880949;29;20469;-40
2021/11/08 07:32:05;;;;;;;14.17;5.90;;;7.50;85.80;;;;;;4880605;29;20474;-40
2021/11/08 07:34:32;;;;;;;11.83;5.77;;;7.50;85.80;;;;;;4882583;29;20458;-40
2021/11/08 07:36:59;;;;;;;19.83;6.70;;;7.50;86.00;;;;;;4843874;29;20466;-40
2021/11/08 07:39:27;;;;;;;7.07;4.27;;;7.50;85.80;;;;;;4881183;29;20836;-40
2021/11/08 07:41:54;;;;;;;11.27;5.33;;;7.50;85.60;;;;;;4879548;29;20466;-40
2021/11/08 07:44:20;;;;;;;6.47;4.80;;;7.50;85.80;;;;;;4882257;29;20465;-40
2021/11/08 07:46:47;;;;;;;7.13;5.10;;;7.50;85.90;;;;;;4877327;29;20586;-40
2021/11/08 07:49:14;;;;;;;14.70;5.97;;;7.60;86.00;;;;;;4879858;29;20481;-40
2021/11/08 07:51:41;;;;;;;11.83;7.23;;;7.60;86.10;;;;;;4879324;29;20470;-40
2021/11/08 07:54:08;;;;;;;9.10;5.23;;;7.70;86.00;;;;;;4881764;29;20481;-40
2021/11/08 07:56:35;;;;;;;41.03;24.87;;;7.70;85.50;;;;;;4874976;29;20485;-40
2021/11/08 07:59:02;;;;;;;21.80;12.90;;;7.80;85.30;;;;;;4879063;29;20668;-40
2021/11/08 08:01:28;;;;;;;19.33;10.80;;;7.80;85.00;;;;;;4881095;29;20472;-40
2021/11/08 08:03:55;;;;;;;10.60;6.90;;;7.70;85.30;;;;;;4864231;29;20469;-40
2021/11/08 08:06:22;;;;;;;19.70;7.10;;;7.70;85.50;;;;;;4879658;29;21033;-40
2021/11/08 08:08:50;;;;;;;13.60;7.10;;;7.70;85.70;;;;;;4876055;29;20473;-40
2021/11/08 08:11:19;;;;;;;10.63;5.60;;;7.70;85.90;;;;;;4880706;29;20465;-40
2021/11/08 08:13:46;;;;;;;13.40;6.53;;;7.80;85.90;;;;;;4882380;29;20839;-40
2021/11/08 08:16:16;;;;;;;13.33;5.17;;;7.80;85.70;;;;;;4871245;29;20457;-40
2021/11/08 08:18:45;;;;;;;8.93;5.80;;;7.90;85.70;;;;;;4885745;29;29433;-40
2021/11/08 08:21:13;;;;;;;9.20;5.67;;;7.90;85.70;;;;;;4886614;29;20978;-40
2021/11/08 08:23:54;;;;;;;10.83;5.90;;;7.90;85.80;;;;;;4884867;29;20470;-40
2021/11/08 08:26:25;;;;;;;8.40;5.23;;;7.90;85.90;;;;;;4876769;29;20591;-40
2021/11/08 08:28:52;;;;;;;12.20;6.20;;;7.90;85.70;;;;;;4870209;29;20472;-40
2021/11/08 08:31:19;;;;;;;8.90;5.17;;;7.90;85.90;;;;;;4892736;29;20460;-40
2021/11/08 08:33:46;;;;;;;9.17;5.50;;;7.90;86.00;;;;;;4886493;29;20584;-40
2021/11/08 08:36:12;;;;;;;14.10;5.47;;;8.00;86.00;;;;;;4889395;29;20464;-40
2021/11/08 08:38:41;;;;;;;16.90;5.57;;;8.00;86.10;;;;;;4876666;29;20541;-40
2021/11/08 08:41:08;;;;;;;11.93;5.60;;;8.00;86.00;;;;;;4891556;29;20465;-40
2021/11/08 08:43:35;;;;;;;20.50;7.20;;;8.10;85.80;;;;;;4891465;29;20461;-40
2021/11/08 08:46:03;;;;;;;12.03;6.20;;;8.20;85.60;;;;;;4892216;29;20976;-41
2021/11/08 08:48:30;;;;;;;22.93;7.93;;;8.20;85.50;;;;;;4874363;29;20659;-40
2021/11/08 08:50:58;;;;;;;17.03;6.73;;;8.20;85.50;;;;;;4892688;29;20549;-40
2021/11/08 08:53:25;;;;;;;11.90;6.67;;;8.30;85.70;;;;;;4889868;29;20446;-40
2021/11/08 08:55:55;;;;;;;12.50;7.90;;;8.30;85.40;;;;;;4891649;29;20488;-41
2021/11/08 08:58:22;;;;;;;11.30;6.57;;;8.30;85.30;;;;;;4892597;29;20465;-40
2021/11/08 09:00:49;;;;;;;16.50;6.60;;;8.40;85.40;;;;;;4889343;29;20557;-40
2021/11/08 09:03:17;;;;;;;16.20;6.80;;;8.40;85.20;;;;;;4886339;29;20584;-40
2021/11/08 09:05:45;;;;;;;8.17;4.93;;;8.50;85.10;;;;;;4886726;29;20930;-40
2021/11/08 09:08:13;;;;;;;10.57;4.90;;;8.50;84.50;;;;;;4872684;29;20811;-40
2021/11/08 09:10:41;;;;;;;10.90;5.20;;;8.50;84.20;;;;;;4885826;29;20464;-40
2021/11/08 09:13:14;;;;;;;18.73;5.00;;;8.60;83.60;;;;;;4895399;29;20466;-40
2021/11/08 09:15:42;;;;;;;9.27;4.40;;;8.50;83.80;;;;;;4885669;29;20552;-40
2021/11/08 09:18:10;;;;;;;7.10;4.70;;;8.50;84.20;;;;;;4886187;29;20892;-40
2021/11/08 09:20:38;;;;;;;9.10;5.20;;;8.60;84.30;;;;;;4884048;29;20476;-40
2021/11/08 09:23:06;;;;;;;12.47;5.47;;;8.80;83.20;;;;;;4856857;29;20466;-40
2021/11/08 09:25:33;;;;;;;11.33;5.67;;;8.80;83.60;;;;;;4883954;29;20493;-40
2021/11/08 09:28:02;;;;;;;12.50;5.90;;;8.90;82.60;;;;;;4889456;29;20510;-40
2021/11/08 09:30:33;;;;;;;11.63;6.03;;;9.00;82.10;;;;;;4890243;29;20458;-40
2021/11/08 09:33:00;;;;;;;9.27;5.60;;;9.10;83.00;;;;;;4889257;29;20477;-40
2021/11/08 09:35:33;;;;;;;12.43;6.03;;;9.20;82.50;;;;;;4891032;29;20480;-40
2021/11/08 09:38:02;;;;;;;13.90;6.60;;;9.30;81.50;;;;;;4888865;29;20468;-41
2021/11/08 09:40:29;;;;;;;12.00;5.40;;;9.40;81.80;;;;;;4876344;29;20564;-41
2021/11/08 09:42:56;;;;;;;11.90;5.47;;;9.40;82.10;;;;;;4874188;29;20464;-40
2021/11/08 09:45:26;;;;;;;8.50;5.27;;;9.60;81.90;;;;;;4885362;29;20501;-40
2021/11/08 09:47:53;;;;;;;9.37;5.50;;;9.70;81.60;;;;;;4868116;29;20466;-41
2021/11/08 09:50:24;;;;;;;12.67;5.87;;;9.90;81.40;;;;;;4886503;29;20849;-41
2021/11/08 09:52:51;;;;;;;12.43;5.43;;;10.00;80.30;;;;;;4872147;29;20476;-41
2021/11/08 09:55:22;;;;;;;15.63;5.57;;;10.10;80.50;;;;;;4884467;29;20500;-41
2021/11/08 09:57:53;;;;;;;12.60;5.13;;;10.30;80.40;;;;;;4873437;29;21132;-41
2021/11/08 10:00:24;;;;;;;14.63;6.93;;;10.40;80.20;;;;;;4887559;29;20466;-41
2021/11/08 10:02:57;;;;;;;13.63;5.10;;;10.50;79.90;;;;;;4874617;29;20556;-41
2021/11/08 10:05:28;;;;;;;19.43;5.20;;;10.70;79.70;;;;;;4867907;29;22253;-41
2021/11/08 10:07:56;;;;;;;10.50;6.00;;;10.80;79.30;;;;;;4890415;29;20977;-41
2021/11/08 10:10:23;;;;;;;13.73;5.47;;;10.90;77.60;;;;;;4866900;29;20470;-41
2021/11/08 10:12:55;;;;;;;18.37;6.40;;;11.10;76.80;;;;;;4853560;29;20477;-41
2021/11/08 10:15:23;;;;;;;14.53;6.03;;;11.00;76.80;;;;;;4888165;29;20992;-41
2021/11/08 10:17:49;;;;;;;8.23;4.77;;;11.00;77.30;;;;;;4889248;29;20561;-41
2021/11/08 10:20:34;;;;;;;7.50;5.43;;;11.00;77.50;;;;;;4888830;29;20469;-41
2021/11/08 10:23:01;;;;;;;8.23;5.00;;;11.00;77.70;;;;;;4888119;29;21028;-41
2021/11/08 10:25:30;;;;;;;10.93;4.50;;;11.00;77.30;;;;;;4873359;29;20513;-41
2021/11/08 10:27:56;;;;;;;16.50;4.90;;;11.00;76.70;;;;;;4885888;29;21088;-41
2021/11/08 10:30:33;;;;;;;12.63;3.97;;;10.90;76.70;;;;;;4888818;29;21025;-41
2021/11/08 10:33:21;;;;;;;6.50;3.50;;;10.90;76.80;;;;;;4870825;29;20462;-41
2021/11/08 10:35:54;;;;;;;11.00;4.93;;;10.90;77.20;;;;;;4872384;29;20480;-41
2021/11/08 10:38:25;;;;;;;8.53;4.90;;;10.80;77.50;;;;;;4871895;29;20468;-41
2021/11/08 10:41:16;;;;;;;9.50;5.83;;;10.80;77.60;;;;;;4887659;29;20470;-41
2021/11/08 10:43:53;;;;;;;10.80;5.33;;;10.80;77.60;;;;;;4869993;29;20481;-41
2021/11/08 10:46:25;;;;;;;11.47;4.63;;;10.80;77.50;;;;;;4890942;29;20500;-42
2021/11/08 10:48:59;;;;;;;16.43;6.10;;;10.80;77.30;;;;;;4890078;29;20960;-41
2021/11/08 10:51:28;;;;;;;15.50;5.80;;;10.80;77.50;;;;;;4886419;29;20462;-41
2021/11/08 10:54:09;;;;;;;10.43;5.93;;;10.70;77.80;;;;;;4888625;29;20465;-41
2021/11/08 10:56:44;;;;;;;8.70;4.70;;;10.70;77.80;;;;;;4886110;29;20513;-40
2021/11/08 10:59:18;;;;;;;15.37;6.10;;;10.80;78.00;;;;;;4884204;29;20991;-41
2021/11/08 11:01:53;;;;;;;13.60;7.17;;;10.80;78.20;;;;;;4885326;29;20490;-42
2021/11/08 11:04:31;;;;;;;14.70;6.20;;;10.80;78.40;;;;;;4888615;29;20848;-40
2021/11/08 11:06:59;;;;;;;7.90;5.40;;;10.90;78.60;;;;;;4886683;29;20501;-42
2021/11/08 11:09:29;;;;;;;12.90;6.67;;;10.80;78.50;;;;;;4886964;29;20470;-41
2021/11/08 11:12:08;;;;;;;11.77;6.80;;;10.80;78.50;;;;;;4886313;29;20474;-40
2021/11/08 11:14:49;;;;;;;8.03;6.63;;;10.80;78.50;;;;;;4889228;29;20484;-40
2021/11/08 11:17:29;;;;;;;11.70;5.50;;;10.80;78.70;;;;;;4887369;29;20469;-41
2021/11/08 11:20:21;;;;;;;8.77;5.70;;;10.80;78.60;;;;;;4885824;29;21092;-40
2021/11/08 11:23:10;;;;;;;16.90;6.33;;;10.80;78.80;;;;;;4867311;29;20470;-41
2021/11/08 11:25:40;;;;;;;9.60;5.50;;;10.90;78.20;;;;;;4868258;29;20469;-40
2021/11/08 11:28:08;;;;;;;11.97;5.00;;;10.90;78.00;;;;;;4881826;29;20516;-40
2021/11/08 11:30:44;;;;;;;16.80;4.97;;;10.90;77.40;;;;;;4869356;29;20989;-40
2021/11/08 11:33:14;;;;;;;8.87;5.40;;;11.00;77.40;;;;;;4887936;29;20465;-40
2021/11/08 11:35:55;;;;;;;14.87;6.00;;;11.00;77.50;;;;;;4889494;29;20474;-40
2021/11/08 11:38:29;;;;;;;11.03;5.50;;;11.00;77.40;;;;;;4885701;29;20551;-40
2021/11/08 11:41:06;;;;;;;6.30;3.30;;;11.20;77.20;;;;;;4887160;29;20477;-40
2021/11/08 11:43:43;;;;;;;6.60;3.13;;;11.30;76.00;;;;;;4869604;29;20927;-40
2021/11/08 11:46:25;;;;;;;13.73;4.37;;;11.40;74.80;;;;;;4870092;29;20968;-41
2021/11/08 11:48:53;;;;;;;6.40;3.80;;;11.50;74.70;;;;;;4889483;29;20448;-41
2021/11/08 11:51:23;;;;;;;8.67;4.13;;;11.60;75.70;;;;;;4892325;29;21011;-41
2021/11/08 11:53:50;;;;;;;13.10;4.70;;;11.70;75.80;;;;;;4877016;29;20840;-40
2021/11/08 11:56:20;;;;;;;8.07;4.37;;;11.80;75.30;;;;;;4890522;29;20520;-40
2021/11/08 11:58:48;;;;;;;10.23;4.10;;;11.90;74.90;;;;;;4875481;29;20537;-40
2021/11/08 12:01:19;;;;;;;9.77;4.23;;;11.90;73.20;;;;;;4891675;29;20460;-40
2021/11/08 12:03:47;;;;;;;6.93;3.77;;;12.00;73.40;;;;;;4877242;29;20462;-40
2021/11/08 12:06:19;;;;;;;10.53;4.93;;;12.00;73.80;;;;;;4892626;29;20497;-40
2021/11/08 12:08:47;;;;;;;9.50;4.63;;;12.10;73.50;;;;;;4864760;29;21092;-41
2021/11/08 12:11:14;;;;;;;8.93;4.50;;;12.10;73.90;;;;;;4872483;29;20838;-41
2021/11/08 12:13:54;;;;;;;10.90;4.27;;;12.10;73.70;;;;;;4890602;29;20473;-41
2021/11/08 12:16:26;;;;;;;10.33;4.80;;;12.20;72.40;;;;;;4890833;29;20569;-41
2021/11/08 12:18:54;;;;;;;12.43;4.20;;;12.20;72.50;;;;;;4887426;29;20997;-41
2021/11/08 12:21:27;;;;;;;12.70;5.03;;;12.10;73.00;;;;;;4890931;29;20465;-40
2021/11/08 12:23:56;;;;;;;8.47;4.27;;;12.20;71.10;;;;;;4868637;29;20473;-40
2021/11/08 12:26:29;;;;;;;8.40;4.20;;;12.10;70.80;;;;;;4890647;29;20602;-40
2021/11/08 12:29:18;;;;;;;15.43;4.60;;;12.10;71.40;;;;;;4874814;29;20548;-40
2021/11/08 12:31:47;;;;;;;12.53;3.67;;;12.00;72.10;;;;;;4892066;29;20453;-40
2021/11/08 12:34:20;;;;;;;8.40;4.37;;;11.90;72.30;;;;;;4890191;29;20465;-41
2021/11/08 12:37:00;;;;;;;7.20;4.07;;;11.80;72.60;;;;;;4891055;29;20473;-41
2021/11/08 12:39:28;;;;;;;8.80;3.83;;;11.80;72.80;;;;;;4876761;29;20475;-41
2021/11/08 12:42:03;;;;;;;8.60;3.77;;;11.80;73.10;;;;;;4890456;29;20473;-41
2021/11/08 12:44:45;;;;;;;10.67;4.33;;;11.80;73.20;;;;;;4892013;29;20480;-40
2021/11/08 12:47:14;;;;;;;7.03;3.43;;;11.80;73.30;;;;;;4890945;29;20489;-41
2021/11/08 12:49:54;;;;;;;13.33;5.30;;;11.80;73.00;;;;;;4890636;29;20820;-41
2021/11/08 12:52:27;;;;;;;7.47;4.43;;;11.80;72.90;;;;;;4888286;29;20474;-41
2021/11/08 12:55:08;;;;;;;8.70;4.47;;;11.80;72.90;;;;;;4890854;29;20474;-41
2021/11/08 12:57:37;;;;;;;8.03;3.53;;;11.90;72.80;;;;;;4874907;29;20488;-41
2021/11/08 13:00:22;;;;;;;7.07;4.70;;;11.80;72.60;;;;;;4874752;29;20933;-41
2021/11/08 13:02:56;;;;;;;8.30;3.83;;;11.80;72.70;;;;;;4890793;29;20454;-41
2021/11/08 13:05:48;;;;;;;10.60;3.60;;;11.80;72.70;;;;;;4889224;29;20840;-41
2021/11/08 13:08:27;;;;;;;8.13;4.43;;;11.80;72.30;;;;;;4889470;29;20469;-41
2021/11/08 13:11:15;;;;;;;7.70;3.37;;;11.80;72.00;;;;;;4890256;29;20553;-41
2021/11/08 13:13:58;;;;;;;8.20;3.27;;;11.80;72.20;;;;;;4885483;29;20473;-41
2021/11/08 13:16:42;;;;;;;13.33;3.80;;;11.80;71.40;;;;;;4888383;29;20842;-41
2021/11/08 13:19:11;;;;;;;7.70;3.30;;;11.80;71.50;;;;;;4887516;29;20474;-41
2021/11/08 13:21:40;;;;;;;8.90;3.40;;;11.80;71.10;;;;;;4888770;29;20560;-41
2021/11/08 13:24:08;;;;;;;7.97;3.70;;;11.70;71.40;;;;;;4891632;29;20472;-41
2021/11/08 13:26:42;;;;;;;7.00;3.43;;;11.70;71.80;;;;;;4889862;29;20499;-41
2021/11/08 13:29:20;;;;;;;6.80;3.37;;;11.70;72.00;;;;;;4877589;29;20870;-41
2021/11/08 13:31:49;;;;;;;10.87;7.63;;;11.70;72.00;;;;;;4891429;29;20464;-41
2021/11/08 13:34:17;;;;;;;11.67;6.33;;;11.70;72.10;;;;;;4892173;29;20450;-41
2021/11/08 13:36:45;;;;;;;10.37;4.23;;;11.60;72.20;;;;;;4890108;29;20476;-41
2021/11/08 13:39:12;;;;;;;8.20;3.73;;;11.60;72.50;;;;;;4892263;29;20553;-41
2021/11/08 13:41:39;;;;;;;7.13;3.03;;;11.60;72.60;;;;;;4890711;29;20466;-41
2021/11/08 13:44:12;;;;;;;6.83;2.60;;;11.50;72.60;;;;;;4890633;29;20470;-41
2021/11/08 13:46:41;;;;;;;11.43;3.10;;;11.50;72.50;;;;;;4889116;29;20560;-41
2021/11/08 13:49:13;;;;;;;7.10;3.23;;;11.50;72.60;;;;;;4889271;29;20466;-41
2021/11/08 13:51:42;;;;;;;10.73;3.60;;;11.50;72.70;;;;;;4889036;29;20827;-41
2021/11/08 13:54:23;;;;;;;7.73;3.57;;;11.40;72.60;;;;;;4886291;29;20465;-41
2021/11/08 13:56:53;;;;;;;9.83;4.50;;;11.50;73.30;;;;;;4891234;29;20529;-41
2021/11/08 13:59:27;;;;;;;10.47;3.93;;;11.50;74.30;;;;;;4888218;29;20497;-41
2021/11/08 14:02:08;;;;;;;7.97;4.00;;;11.50;74.20;;;;;;4890305;29;20457;-41
2021/11/08 14:04:44;;;;;;;7.00;3.10;;;11.50;74.20;;;;;;4888716;29;20472;-41
2021/11/08 14:07:11;;;;;;;12.00;3.60;;;11.40;74.20;;;;;;4888361;29;20489;-41
2021/11/08 14:09:41;;;;;;;8.10;4.30;;;11.40;74.20;;;;;;4873781;29;20454;-41
2021/11/08 14:12:11;;;;;;;9.70;4.13;;;11.40;74.00;;;;;;4873952;29;20489;-41
2021/11/08 14:14:38;;;;;;;14.00;4.23;;;11.40;74.10;;;;;;4889581;29;20461;-41
2021/11/08 14:17:14;;;;;;;12.73;3.90;;;11.40;74.20;;;;;;4874564;29;20473;-41
2021/11/08 14:19:42;;;;;;;9.40;4.03;;;11.40;74.10;;;;;;4886375;29;20977;-41
2021/11/08 14:22:09;;;;;;;8.93;3.77;;;11.50;74.20;;;;;;4886913;29;21070;-41
2021/11/08 14:24:45;;;;;;;8.13;3.00;;;11.50;74.30;;;;;;4886159;29;21049;-41
2021/11/08 14:27:18;;;;;;;7.53;4.07;;;11.50;74.30;;;;;;4873516;29;20499;-41
2021/11/08 14:29:46;;;;;;;10.93;4.60;;;11.40;74.30;;;;;;4887465;29;20473;-41
2021/11/08 14:32:19;;;;;;;10.10;4.00;;;11.40;74.00;;;;;;4887077;29;20493;-41
2021/11/08 14:35:08;;;;;;;13.70;4.20;;;11.40;73.80;;;;;;4869786;29;21000;-41